Text Box: All records at near 07:00 local time
Kleivo 1 weather for Jun 2008
Month no. 19
Obs.
Da.
Temp. Dew Point Precip. Wind
Speed
Wind gusts Cloud cover Press. Humidity Wind dir. Sunny OPT
01.06.2008 14,9   0,0 0,0   10 999,0 73,0 0,0 1 92,5 %
02.06.2008 20,9   0,0 0,0   10 996,9 40,0 0,0 1 100,0 %
03.06.2008 13,9   0,0 0,0   10 995,9 73,0 0,0 1 92,5 %
04.06.2008 20,1   0,0 0,0   10 999,7 40,0 0,0 1 100,0 %
05.06.2008 18,9   0,0 0,0   10 1002,4 41,0 0,0 1 97,5 %
06.06.2008 15,1   0,0 0,0   10 1000,7 72,0 0,0 1 95,0 %
07.06.2008 14,3   0,0 0,0   10 999,7 87,0 0,0 1 92,5 %
08.06.2008 14,9   0,0 0,0   10 1002,0 73,0 0,0 1 92,5 %
09.06.2008 12,5   0,0 0,0   1 1003,0 77,0 0,0   70,0 %
10.06.2008 10,6   0,0 0,0   1 990,5 84,0 0,0 1 67,5 %
11.06.2008 7,8   0,0 0,0   6 988,8 88,0 0,0 1 77,5 %
12.06.2008 11,3   0,0 0,0   1 990,9 84,0 0,0   67,5 %
13.06.2008 7,8   0,0 0,0   8 988,1 86,0 0,0 1 82,5 %
14.06.2008 7,9   9,7 0,0   9 985,4 90,0 0,0 1 77,5 %
15.06.2008 8,8   0,0 0,0   7 984,1 93,0 0,0 1 80,0 %
16.06.2008 12,4   0,0 0,0   8 985,4 94,0 0,0 1 85,0 %
17.06.2008 10,1   0,0 0,0   8 989,5 91,0 0,0 1 85,0 %
18.06.2008 12,1   0,0 0,0   7 987,1 82,0 0,0 1 82,5 %
19.06.2008 10,4   0,0 0,0   1 980,0 92,0 0,0   67,5 %
20.06.2008 11,0   0,0 0,0   1 981,0 87,0 0,0   67,5 %
21.06.2008 9,0   0,0 0,0   1 989,5 94,0 0,0   65,0 %
22.06.2008 8,8   0,0 0,0   1 992,5 93,0 0,0   65,0 %
23.06.2008 12,4   0,0 0,0   1 975,6 94,0 0,0   67,5 %
24.06.2008 7,5   0,0 0,0   1 995,6 92,0 0,0   65,0 %
25.06.2008 9,1   0,0 0,0   8 996,9 95,0 0,0 1 82,5 %
26.06.2008 11,6   0,0 0,0   10 989,2 71,0 0,0 1 90,0 %
27.06.2008 10,5   0,0 0,0   3 987,5 93,0 0,0 1 72,5 %
28.06.2008 10,2   0,0 0,0   3 989,2 95,0 0,0 1 72,5 %
29.06.2008 14,2   0,0 0,0   3 988,8 81,0 0,0 1 75,0 %
30.06.2008 14,6   0,0 0,0   1 990,2 88,0 0,0   70,0 %
                       
Avrg/Sum 12,1   9,7 0,0   5,7 991,5 81,4 0,0 21 79,9 %